Time;durP1;ratioP1;P1;durP2;ratioP2;P2;SDS_P1;SDS_P2;PMS_P1;PMS_P2;Temp;Humidity;BMP_temperature;BMP_pressure;BME280_temperature;BME280_humidity;BME280_pressure;Samples;Min_cycle;Max_cycle;Signal;HPM_P1;HPM_P2
2021/10/12 00:01:32;;;;;;;7.93;1.75;;;11.90;97.70;;;;;;5052125;28;20090;-74
2021/10/12 00:03:58;;;;;;;10.82;1.20;;;12.00;97.70;;;;;;5051551;28;20090;-73
2021/10/12 00:06:24;;;;;;;6.35;1.27;;;12.00;97.60;;;;;;5051897;28;20094;-73
2021/10/12 00:08:52;;;;;;;9.73;2.17;;;11.90;97.60;;;;;;5050393;28;20051;-71
2021/10/12 00:11:18;;;;;;;12.70;1.30;;;11.80;97.60;;;;;;5051005;28;20087;-72
2021/10/12 00:13:43;;;;;;;12.43;1.20;;;11.70;97.90;;;;;;5050172;28;20391;-71
2021/10/12 00:16:09;;;;;;;10.55;1.50;;;11.50;98.20;;;;;;5051537;28;20447;-72
2021/10/12 00:18:35;;;;;;;8.27;1.20;;;11.70;98.10;;;;;;5049933;28;20359;-73
2021/10/12 00:21:00;;;;;;;7.18;1.20;;;11.80;97.90;;;;;;5050545;28;20052;-73
2021/10/12 00:23:26;;;;;;;10.43;1.48;;;11.80;97.80;;;;;;5050188;28;20060;-73
2021/10/12 00:25:52;;;;;;;5.72;1.20;;;11.90;97.60;;;;;;5051809;28;20124;-72
2021/10/12 00:28:17;;;;;;;7.65;1.00;;;11.90;97.60;;;;;;5050050;28;20067;-74
2021/10/12 00:30:46;;;;;;;7.80;1.10;;;11.80;97.70;;;;;;5051090;28;20367;-72
2021/10/12 00:33:12;;;;;;;7.45;1.20;;;11.70;97.90;;;;;;5051087;28;20037;-72
2021/10/12 00:35:37;;;;;;;4.88;1.52;;;11.80;97.70;;;;;;5050043;28;20489;-73
2021/10/12 00:38:03;;;;;;;5.10;1.02;;;11.90;97.70;;;;;;5051397;28;20021;-73
2021/10/12 00:40:29;;;;;;;10.38;2.03;;;11.80;97.60;;;;;;5051600;28;20029;-73
2021/10/12 00:42:55;;;;;;;12.15;1.63;;;11.90;97.60;;;;;;5049684;28;20044;-73
2021/10/12 00:45:21;;;;;;;7.45;1.27;;;11.90;97.70;;;;;;5050897;28;20029;-72
2021/10/12 00:48:01;;;;;;;6.88;1.17;;;11.90;97.70;;;;;;5051131;28;20037;-72
2021/10/12 00:50:28;;;;;;;4.90;1.05;;;11.70;97.90;;;;;;5050781;28;20045;-72
2021/10/12 00:52:54;;;;;;;5.60;1.20;;;11.90;97.70;;;;;;5051643;28;20065;-72
2021/10/12 00:55:20;;;;;;;8.25;1.35;;;11.80;97.70;;;;;;5050753;28;20494;-73
2021/10/12 00:57:47;;;;;;;6.32;1.13;;;11.90;97.60;;;;;;5050835;28;20040;-73
2021/10/12 01:00:13;;;;;;;9.52;1.55;;;11.90;97.50;;;;;;5050771;28;20029;-73
2021/10/12 01:02:39;;;;;;;11.80;1.40;;;11.90;97.50;;;;;;5051094;28;20367;-72
2021/10/12 01:05:07;;;;;;;9.20;1.20;;;11.70;97.60;;;;;;5050842;28;20082;-72
2021/10/12 01:07:33;;;;;;;7.93;1.15;;;11.60;97.80;;;;;;5051286;28;20477;-73
2021/10/12 01:09:58;;;;;;;9.75;1.40;;;11.70;97.80;;;;;;5050577;28;20048;-73
2021/10/12 01:12:24;;;;;;;12.48;1.67;;;11.90;97.80;;;;;;5050883;28;20120;-73
2021/10/12 01:14:50;;;;;;;6.32;1.08;;;11.80;97.60;;;;;;5050753;28;20037;-72
2021/10/12 01:17:15;;;;;;;16.10;1.65;;;11.80;97.60;;;;;;5049685;28;20094;-74
2021/10/12 01:19:41;;;;;;;5.80;1.27;;;11.80;97.60;;;;;;5051039;28;20072;-73
2021/10/12 01:22:07;;;;;;;11.55;1.98;;;11.90;97.60;;;;;;5050805;28;20037;-73
2021/10/12 01:24:32;;;;;;;11.32;1.90;;;11.90;97.60;;;;;;5051794;28;20029;-73
2021/10/12 01:26:58;;;;;;;9.88;1.80;;;11.90;97.60;;;;;;5054445;28;20351;-72
2021/10/12 01:29:23;;;;;;;8.93;1.30;;;11.80;97.60;;;;;;5054390;28;20035;-73
2021/10/12 01:31:49;;;;;;;4.63;1.25;;;11.70;97.80;;;;;;5054506;28;20120;-72
2021/10/12 01:34:18;;;;;;;7.78;1.20;;;11.80;97.70;;;;;;5054284;28;20026;-73
2021/10/12 01:36:44;;;;;;;10.07;1.23;;;11.70;97.90;;;;;;5038145;28;20027;-72
2021/10/12 01:39:10;;;;;;;9.30;1.83;;;11.70;97.80;;;;;;5034326;28;20074;-72
2021/10/12 01:41:36;;;;;;;5.68;1.25;;;11.70;97.80;;;;;;5034008;28;20022;-73
2021/10/12 01:44:02;;;;;;;8.43;1.08;;;11.70;97.80;;;;;;5034414;28;20464;-73
2021/10/12 01:46:28;;;;;;;5.50;0.93;;;11.70;97.80;;;;;;5034733;28;20109;-73
2021/10/12 01:48:53;;;;;;;6.57;0.90;;;11.80;97.70;;;;;;5034014;28;20114;-74
2021/10/12 01:51:19;;;;;;;7.93;1.83;;;11.70;97.80;;;;;;5034055;28;20060;-72
2021/10/12 01:53:45;;;;;;;6.65;0.90;;;11.70;97.60;;;;;;5033901;28;20032;-72
2021/10/12 01:56:11;;;;;;;6.28;1.20;;;11.80;97.60;;;;;;5034072;28;20091;-73
2021/10/12 01:58:36;;;;;;;10.73;1.75;;;11.70;97.60;;;;;;5033095;28;20075;-72
2021/10/12 02:01:03;;;;;;;6.53;1.35;;;11.80;97.50;;;;;;5033836;28;20041;-73
2021/10/12 02:03:28;;;;;;;4.68;1.02;;;11.80;97.50;;;;;;5033841;28;20034;-73
2021/10/12 02:05:54;;;;;;;8.23;1.30;;;11.60;97.60;;;;;;5033851;28;20041;-73
2021/10/12 02:08:19;;;;;;;11.90;1.45;;;11.60;97.70;;;;;;5033776;28;20124;-73
2021/10/12 02:10:45;;;;;;;9.23;1.33;;;11.50;97.90;;;;;;5033990;28;20080;-73
2021/10/12 02:13:11;;;;;;;5.80;0.98;;;11.50;97.80;;;;;;5034012;28;20034;-73
2021/10/12 02:15:37;;;;;;;9.25;1.48;;;11.60;97.80;;;;;;5033809;28;20033;-73
2021/10/12 02:18:02;;;;;;;8.77;1.10;;;11.60;97.70;;;;;;5033800;28;20380;-73
2021/10/12 02:20:28;;;;;;;3.40;1.05;;;11.60;97.70;;;;;;5032108;28;20037;-73
2021/10/12 02:22:53;;;;;;;7.43;1.38;;;11.60;97.50;;;;;;5033952;28;20029;-73
2021/10/12 02:25:19;;;;;;;12.35;1.55;;;11.60;97.60;;;;;;5033642;28;20040;-73
2021/10/12 02:27:45;;;;;;;5.13;1.02;;;11.50;97.80;;;;;;5033323;28;20052;-74
2021/10/12 02:30:11;;;;;;;4.63;1.25;;;11.50;97.80;;;;;;5033507;28;20043;-71
2021/10/12 02:32:36;;;;;;;19.35;1.85;;;11.50;97.80;;;;;;5033382;28;20608;-72
2021/10/12 02:35:03;;;;;;;5.55;1.00;;;11.50;97.80;;;;;;5033276;28;20033;-71
2021/10/12 02:37:28;;;;;;;3.78;0.90;;;11.50;97.70;;;;;;5033116;28;20043;-73
2021/10/12 02:39:54;;;;;;;5.28;1.17;;;11.60;97.70;;;;;;5032204;28;20029;-73
2021/10/12 02:42:19;;;;;;;14.50;1.67;;;11.60;97.90;;;;;;5033312;28;20116;-72
2021/10/12 02:44:46;;;;;;;8.10;1.10;;;11.50;97.60;;;;;;5032905;28;20033;-73
2021/10/12 02:47:12;;;;;;;7.70;1.20;;;11.60;97.60;;;;;;5033246;28;20469;-72
2021/10/12 02:49:37;;;;;;;3.65;0.93;;;11.60;97.70;;;;;;5032377;28;20481;-73
2021/10/12 02:52:03;;;;;;;5.78;1.38;;;11.60;97.60;;;;;;5033076;28;20048;-73
2021/10/12 02:54:29;;;;;;;4.80;0.90;;;11.70;97.60;;;;;;5033121;28;20489;-73
2021/10/12 02:56:54;;;;;;;5.43;1.33;;;11.60;97.60;;;;;;5033114;28;20026;-72
2021/10/12 02:59:20;;;;;;;6.57;0.80;;;11.60;97.60;;;;;;5031301;28;20509;-73
2021/10/12 03:01:45;;;;;;;4.68;0.90;;;11.60;97.50;;;;;;5032982;28;20100;-72
2021/10/12 03:04:11;;;;;;;2.67;0.98;;;11.70;97.50;;;;;;5031548;28;20265;-73
2021/10/12 03:06:37;;;;;;;10.57;1.42;;;11.60;97.90;;;;;;5031517;28;20095;-72
2021/10/12 03:09:03;;;;;;;5.15;1.05;;;11.60;97.70;;;;;;5032459;28;20053;-72
2021/10/12 03:11:28;;;;;;;5.80;1.10;;;11.70;97.60;;;;;;5031574;28;20073;-72
2021/10/12 03:13:54;;;;;;;5.05;0.90;;;11.70;97.40;;;;;;5032691;28;20031;-72
2021/10/12 03:16:20;;;;;;;4.15;1.30;;;11.50;97.60;;;;;;5032550;28;20045;-72
2021/10/12 03:18:46;;;;;;;4.40;0.98;;;11.70;97.50;;;;;;5032186;28;20116;-72
2021/10/12 03:21:13;;;;;;;8.45;1.10;;;11.70;97.40;;;;;;5032943;28;20159;-72
2021/10/12 03:23:39;;;;;;;5.03;0.80;;;11.70;97.50;;;;;;5032290;28;20021;-70
2021/10/12 03:26:04;;;;;;;6.32;0.90;;;11.80;97.40;;;;;;5032034;28;20032;-71
2021/10/12 03:28:30;;;;;;;10.90;1.38;;;11.70;97.70;;;;;;5032844;28;20030;-72
2021/10/12 03:30:55;;;;;;;4.82;1.77;;;11.80;97.30;;;;;;5031028;28;20030;-73
2021/10/12 03:33:21;;;;;;;6.07;0.98;;;11.80;97.30;;;;;;5032255;28;20336;-73
2021/10/12 03:35:57;;;;;;;6.78;1.20;;;11.90;97.30;;;;;;5032045;28;20124;-73
2021/10/12 03:38:25;;;;;;;4.80;0.85;;;11.90;97.30;;;;;;5032142;28;20033;-72
2021/10/12 03:40:51;;;;;;;5.03;1.02;;;11.90;97.20;;;;;;5032316;28;20075;-72
2021/10/12 03:43:18;;;;;;;3.97;0.95;;;11.90;97.20;;;;;;5032069;28;20046;-72
2021/10/12 03:45:44;;;;;;;3.53;0.80;;;12.00;97.40;;;;;;5032094;28;20037;-72
2021/10/12 03:48:09;;;;;;;7.88;1.45;;;11.80;97.50;;;;;;5029931;28;20108;-72
2021/10/12 03:50:35;;;;;;;2.70;1.10;;;11.80;97.60;;;;;;5031885;28;20627;-72
2021/10/12 03:53:00;;;;;;;4.80;1.02;;;11.80;97.60;;;;;;5031570;28;20022;-72
2021/10/12 03:55:26;;;;;;;6.13;1.15;;;11.90;97.70;;;;;;5032214;28;20108;-72
2021/10/12 03:57:52;;;;;;;5.88;0.77;;;11.90;97.70;;;;;;5030568;28;20033;-72
2021/10/12 04:00:18;;;;;;;5.95;1.25;;;11.90;97.80;;;;;;5031754;28;20036;-73
2021/10/12 04:02:44;;;;;;;5.97;1.42;;;11.90;97.80;;;;;;5030575;28;20025;-72
2021/10/12 04:05:09;;;;;;;3.00;1.00;;;11.90;97.80;;;;;;5031476;28;20033;-73
2021/10/12 04:07:35;;;;;;;7.38;1.20;;;12.00;97.80;;;;;;5032125;28;20022;-72
2021/10/12 04:10:01;;;;;;;7.03;1.20;;;11.90;97.80;;;;;;5031276;28;20156;-72
2021/10/12 04:12:26;;;;;;;9.77;1.00;;;11.90;97.90;;;;;;5031649;28;20140;-72
2021/10/12 04:14:52;;;;;;;9.10;1.50;;;11.90;98.00;;;;;;5031417;28;20041;-72
2021/10/12 04:17:17;;;;;;;6.35;1.20;;;11.90;98.20;;;;;;5030324;28;20048;-72
2021/10/12 04:19:43;;;;;;;5.75;1.10;;;11.90;98.30;;;;;;5030685;28;20028;-72
2021/10/12 04:22:09;;;;;;;8.85;1.85;;;11.80;98.50;;;;;;5031393;28;20065;-72
2021/10/12 04:24:36;;;;;;;14.40;2.00;;;11.80;98.70;;;;;;5031486;28;20108;-73
2021/10/12 04:27:03;;;;;;;12.48;1.50;;;11.60;99.00;;;;;;5031265;28;20037;-72
2021/10/12 04:29:30;;;;;;;8.90;1.95;;;11.80;99.00;;;;;;5031361;28;20463;-72
2021/10/12 04:31:57;;;;;;;4.25;1.42;;;11.80;99.00;;;;;;5031569;28;20029;-71
2021/10/12 04:34:22;;;;;;;6.38;1.77;;;11.80;99.10;;;;;;5031591;28;20034;-72
2021/10/12 04:36:48;;;;;;;12.43;2.15;;;11.70;99.50;;;;;;5031376;28;20117;-72
2021/10/12 04:39:13;;;;;;;9.05;2.55;;;11.70;99.60;;;;;;5031303;28;20044;-72
2021/10/12 04:41:39;;;;;;;6.57;2.03;;;11.60;99.80;;;;;;5031076;28;20061;-72
2021/10/12 04:44:09;;;;;;;13.05;2.40;;;11.70;99.80;;;;;;5030933;28;20060;-72
2021/10/12 04:46:35;;;;;;;9.45;2.05;;;11.70;99.80;;;;;;5031635;28;20018;-73
2021/10/12 04:49:00;;;;;;;10.55;3.00;;;11.70;99.80;;;;;;5030777;28;20037;-72
2021/10/12 04:51:26;;;;;;;11.52;2.22;;;11.70;99.80;;;;;;5030019;28;20033;-72
2021/10/12 04:53:51;;;;;;;12.55;2.53;;;11.70;99.90;;;;;;5030989;28;20422;-72
2021/10/12 04:56:17;;;;;;;9.70;2.30;;;11.70;99.90;;;;;;5030947;28;20061;-72
2021/10/12 04:58:42;;;;;;;5.10;1.70;;;11.80;99.90;;;;;;5031176;28;20030;-73
2021/10/12 05:01:08;;;;;;;10.77;2.20;;;11.80;99.90;;;;;;5034874;28;20033;-72
2021/10/12 05:03:33;;;;;;;7.70;2.67;;;11.80;99.90;;;;;;5034899;28;20052;-72
2021/10/12 05:05:59;;;;;;;9.90;2.30;;;11.70;99.90;;;;;;5034878;28;20029;-73
2021/10/12 05:08:24;;;;;;;13.00;2.72;;;11.70;99.90;;;;;;5034730;28;20466;-72
2021/10/12 05:10:50;;;;;;;11.40;2.38;;;11.80;99.90;;;;;;5034704;28;20037;-73
2021/10/12 05:13:16;;;;;;;8.93;2.30;;;11.80;99.90;;;;;;5034540;28;20071;-73
2021/10/12 05:15:46;;;;;;;9.75;2.42;;;11.70;99.90;;;;;;5034782;28;20037;-74
2021/10/12 05:18:19;;;;;;;6.35;2.08;;;11.70;99.90;;;;;;5033058;28;20052;-73
2021/10/12 05:20:45;;;;;;;7.03;2.03;;;11.80;99.90;;;;;;5034546;28;20032;-74
2021/10/12 05:23:11;;;;;;;10.23;3.13;;;11.70;99.90;;;;;;5034116;28;20026;-74
2021/10/12 05:25:37;;;;;;;10.95;2.40;;;11.70;99.90;;;;;;5035156;28;20026;-74
2021/10/12 05:28:03;;;;;;;4.93;2.03;;;11.80;99.90;;;;;;5034266;28;20056;-74
2021/10/12 05:30:29;;;;;;;7.65;2.15;;;11.90;99.90;;;;;;5034375;28;20034;-73
2021/10/12 05:32:54;;;;;;;11.13;2.47;;;11.90;99.90;;;;;;5034341;28;20029;-73
2021/10/12 05:35:20;;;;;;;13.25;2.40;;;11.90;99.90;;;;;;5033952;28;20112;-72
2021/10/12 05:37:46;;;;;;;9.95;2.92;;;11.90;99.90;;;;;;5034517;28;20045;-73
2021/10/12 05:40:12;;;;;;;8.35;2.25;;;12.00;99.90;;;;;;5034109;28;20462;-71
2021/10/12 05:42:37;;;;;;;5.28;2.20;;;12.00;99.90;;;;;;5033988;28;20047;-71
2021/10/12 05:45:03;;;;;;;7.10;2.42;;;12.00;99.90;;;;;;5032751;28;20117;-72
2021/10/12 05:47:29;;;;;;;5.95;2.33;;;11.90;99.90;;;;;;5033634;28;20025;-71
2021/10/12 05:49:54;;;;;;;7.13;2.38;;;11.90;99.90;;;;;;5033920;28;20032;-71
2021/10/12 05:52:22;;;;;;;6.07;2.35;;;11.90;99.90;;;;;;5033638;28;20030;-71
2021/10/12 05:55:04;;;;;;;6.00;2.53;;;12.00;99.90;;;;;;5033572;28;20040;-72
2021/10/12 05:57:41;;;;;;;9.55;2.42;;;12.00;99.90;;;;;;5033572;28;20352;-72
2021/10/12 06:00:07;;;;;;;6.53;2.22;;;12.00;99.90;;;;;;5033461;28;20051;-72
2021/10/12 06:02:33;;;;;;;4.82;2.10;;;12.00;99.90;;;;;;5033452;28;20029;-71
2021/10/12 06:04:59;;;;;;;4.97;1.98;;;12.00;99.90;;;;;;5033852;28;20091;-72
2021/10/12 06:07:25;;;;;;;7.28;2.03;;;12.10;99.90;;;;;;5033334;28;20510;-72
2021/10/12 06:09:51;;;;;;;8.38;2.10;;;12.30;99.90;;;;;;5033268;28;20068;-71
2021/10/12 06:12:17;;;;;;;6.32;1.60;;;12.40;99.90;;;;;;5031000;28;20041;-72
2021/10/12 06:14:43;;;;;;;6.50;1.70;;;12.50;99.90;;;;;;5033258;28;20029;-71
2021/10/12 06:17:09;;;;;;;4.30;1.90;;;12.60;99.90;;;;;;5033159;28;20025;-73
2021/10/12 06:19:35;;;;;;;6.15;1.83;;;12.60;99.70;;;;;;5033579;28;20113;-71
2021/10/12 06:22:00;;;;;;;4.20;1.40;;;12.60;99.20;;;;;;5033034;28;20033;-71
2021/10/12 06:24:26;;;;;;;3.53;1.20;;;12.60;99.00;;;;;;5032954;28;20029;-73
2021/10/12 06:26:51;;;;;;;5.43;1.30;;;12.60;99.00;;;;;;5033345;28;20033;-71
2021/10/12 06:29:17;;;;;;;8.75;2.17;;;12.50;98.90;;;;;;5032836;28;20096;-71
2021/10/12 06:31:42;;;;;;;5.95;2.60;;;12.50;98.90;;;;;;5033191;28;20091;-72
2021/10/12 06:34:08;;;;;;;3.42;1.38;;;12.40;98.90;;;;;;5033014;28;20029;-71
2021/10/12 06:36:35;;;;;;;1.98;1.10;;;12.60;99.00;;;;;;5033128;28;20040;-72
2021/10/12 06:39:01;;;;;;;2.42;1.35;;;12.60;99.00;;;;;;5031907;28;20046;-72
2021/10/12 06:41:27;;;;;;;6.55;1.92;;;12.70;99.10;;;;;;5032631;28;20107;-71
2021/10/12 06:43:52;;;;;;;4.47;1.60;;;12.60;99.10;;;;;;5032871;28;20351;-72
2021/10/12 06:46:18;;;;;;;3.28;1.15;;;12.70;98.90;;;;;;5031754;28;20033;-72
2021/10/12 06:48:43;;;;;;;8.60;3.65;;;12.70;98.80;;;;;;5032449;28;20025;-74
2021/10/12 06:51:09;;;;;;;4.25;1.40;;;12.70;98.80;;;;;;5032256;28;20125;-73
2021/10/12 06:53:34;;;;;;;5.53;1.70;;;12.70;98.80;;;;;;5031336;28;20113;-74
2021/10/12 06:56:00;;;;;;;4.30;1.35;;;12.70;99.00;;;;;;5031139;28;20468;-72
2021/10/12 06:58:25;;;;;;;2.42;0.90;;;12.60;99.00;;;;;;5032432;28;20064;-73
2021/10/12 07:00:51;;;;;;;3.05;1.08;;;12.50;98.80;;;;;;5032011;28;20120;-72
2021/10/12 07:03:17;;;;;;;2.95;0.90;;;12.50;98.90;;;;;;5032262;28;20160;-72
2021/10/12 07:05:42;;;;;;;2.47;0.95;;;12.60;98.90;;;;;;5032124;28;20443;-72
2021/10/12 07:08:08;;;;;;;3.83;0.88;;;12.60;98.90;;;;;;5032030;28;20526;-73
2021/10/12 07:10:33;;;;;;;7.60;1.80;;;12.70;98.80;;;;;;5031163;28;20053;-73
2021/10/12 07:12:59;;;;;;;6.72;2.60;;;12.70;98.90;;;;;;5031870;28;20095;-73
2021/10/12 07:15:24;;;;;;;4.28;1.67;;;12.70;98.90;;;;;;5032160;28;20083;-74
2021/10/12 07:17:50;;;;;;;5.53;1.17;;;12.70;99.10;;;;;;5031641;28;20030;-73
2021/10/12 07:20:15;;;;;;;3.75;1.10;;;12.70;99.10;;;;;;5032096;28;20363;-72
2021/10/12 07:22:41;;;;;;;7.25;1.02;;;12.60;99.20;;;;;;5032001;28;20037;-71
2021/10/12 07:25:07;;;;;;;1.88;0.90;;;12.70;98.90;;;;;;5031850;28;20033;-72
2021/10/12 07:27:34;;;;;;;3.22;1.00;;;12.70;99.00;;;;;;5031629;28;20099;-72
2021/10/12 07:30:00;;;;;;;3.38;1.48;;;12.80;99.00;;;;;;5031500;28;20445;-72
2021/10/12 07:32:25;;;;;;;4.90;1.95;;;12.70;98.90;;;;;;5031570;28;20114;-72
2021/10/12 07:34:51;;;;;;;4.45;2.42;;;12.70;98.90;;;;;;5031800;28;20407;-71
2021/10/12 07:37:17;;;;;;;4.80;1.33;;;12.70;99.00;;;;;;5031915;28;20051;-72
2021/10/12 07:39:42;;;;;;;3.40;2.00;;;12.70;99.00;;;;;;5031264;28;20490;-71
2021/10/12 07:42:12;;;;;;;5.05;1.52;;;12.70;99.10;;;;;;5031646;28;20455;-72
2021/10/12 07:44:39;;;;;;;3.55;1.02;;;12.70;99.10;;;;;;5031304;28;20119;-72
2021/10/12 07:47:09;;;;;;;2.85;0.88;;;12.60;99.00;;;;;;5031234;28;20036;-73
2021/10/12 07:49:35;;;;;;;3.22;1.05;;;12.60;98.90;;;;;;5032270;28;20017;-73
2021/10/12 07:52:06;;;;;;;2.42;1.05;;;12.60;98.90;;;;;;5031031;28;20026;-72
2021/10/12 07:55:00;;;;;;;1.77;1.17;;;12.60;99.00;;;;;;5031130;28;20122;-72
2021/10/12 07:57:26;;;;;;;3.45;1.13;;;12.60;99.10;;;;;;5031305;28;20464;-73
2021/10/12 07:59:51;;;;;;;2.35;1.45;;;12.60;99.10;;;;;;5030922;28;20033;-73
2021/10/12 08:02:17;;;;;;;5.55;1.63;;;12.60;99.20;;;;;;5031114;28;20029;-72
2021/10/12 08:04:43;;;;;;;5.00;2.15;;;12.60;99.60;;;;;;5031655;28;20025;-72
2021/10/12 08:07:10;;;;;;;4.60;2.10;;;12.70;99.30;;;;;;5031010;28;20083;-72
2021/10/12 08:09:36;;;;;;;7.28;3.63;;;12.70;99.30;;;;;;5030630;28;20050;-73
2021/10/12 08:12:06;;;;;;;4.32;2.03;;;12.70;99.40;;;;;;5030834;28;20044;-74
2021/10/12 08:14:37;;;;;;;6.35;2.00;;;12.60;99.30;;;;;;5031065;28;20432;-74
2021/10/12 08:17:03;;;;;;;4.57;1.70;;;12.60;99.50;;;;;;5031097;28;20037;-72
2021/10/12 08:19:28;;;;;;;2.78;1.83;;;12.40;99.80;;;;;;5031029;28;20447;-73
2021/10/12 08:21:54;;;;;;;3.92;2.05;;;12.40;99.80;;;;;;5030896;28;20034;-73
2021/10/12 08:24:20;;;;;;;3.35;1.73;;;12.50;99.90;;;;;;5030927;28;20085;-73
2021/10/12 08:26:47;;;;;;;7.07;2.40;;;12.70;99.70;;;;;;5029500;28;20025;-73
2021/10/12 08:29:13;;;;;;;3.80;1.67;;;12.80;99.60;;;;;;5030507;28;20121;-72
2021/10/12 08:31:38;;;;;;;3.38;1.77;;;12.90;99.50;;;;;;5031180;28;20528;-72
2021/10/12 08:34:04;;;;;;;7.30;2.42;;;13.10;99.70;;;;;;5030117;28;20029;-71
2021/10/12 08:36:30;;;;;;;8.77;1.73;;;13.20;99.50;;;;;;5030660;28;20033;-72
2021/10/12 08:38:56;;;;;;;5.90;1.52;;;13.20;99.20;;;;;;5030715;28;20112;-73
2021/10/12 08:41:29;;;;;;;6.75;2.47;;;13.00;99.30;;;;;;5030745;28;20026;-72
2021/10/12 08:43:56;;;;;;;3.42;1.27;;;13.20;99.40;;;;;;5030926;28;20109;-72
2021/10/12 08:46:26;;;;;;;4.55;1.60;;;13.10;99.20;;;;;;5030844;28;20034;-72
2021/10/12 08:48:54;;;;;;;4.55;1.30;;;13.30;99.40;;;;;;5030641;28;20044;-72
2021/10/12 08:51:20;;;;;;;4.53;1.40;;;13.50;99.30;;;;;;5030421;28;20332;-73
2021/10/12 08:53:46;;;;;;;4.18;1.08;;;13.50;98.90;;;;;;5030572;28;20030;-72
2021/10/12 08:56:12;;;;;;;4.18;1.58;;;13.60;98.90;;;;;;5030237;28;20029;-70
2021/10/12 08:58:38;;;;;;;8.20;0.75;;;13.70;98.90;;;;;;5030824;28;20014;-71
2021/10/12 09:01:03;;;;;;;5.82;1.20;;;13.80;98.80;;;;;;5030447;28;20044;-72
2021/10/12 09:03:52;;;;;;;2.28;0.85;;;14.00;98.60;;;;;;5030506;28;20558;-71
2021/10/12 09:06:31;;;;;;;5.25;1.23;;;14.10;98.30;;;;;;5030413;28;20375;-72
2021/10/12 09:08:59;;;;;;;2.50;1.33;;;14.20;98.20;;;;;;5030243;28;20366;-72
2021/10/12 09:11:28;;;;;;;5.95;1.33;;;14.10;98.30;;;;;;5030076;28;20061;-72
2021/10/12 09:14:07;;;;;;;2.95;1.15;;;14.20;97.70;;;;;;5030905;28;20025;-71
2021/10/12 09:16:41;;;;;;;3.28;0.80;;;14.10;97.90;;;;;;5030435;28;20049;-73
2021/10/12 09:19:17;;;;;;;9.32;1.70;;;14.00;97.30;;;;;;5030413;28;20046;-72
2021/10/12 09:21:48;;;;;;;7.63;1.60;;;14.10;97.50;;;;;;5030168;28;20490;-73
2021/10/12 09:24:23;;;;;;;5.07;1.80;;;14.40;97.40;;;;;;5030562;28;20112;-74
2021/10/12 09:26:54;;;;;;;6.13;1.42;;;14.60;97.30;;;;;;5030260;28;20113;-71
2021/10/12 09:29:28;;;;;;;5.88;1.88;;;15.20;97.10;;;;;;5030355;28;20029;-72
2021/10/12 09:31:55;;;;;;;5.78;1.20;;;15.30;96.60;;;;;;5030474;28;20037;-72
2021/10/12 09:34:22;;;;;;;4.97;1.02;;;15.40;96.50;;;;;;5030200;28;20030;-73
2021/10/12 09:36:50;;;;;;;4.45;1.45;;;15.30;95.90;;;;;;5030116;28;20029;-71
2021/10/12 09:39:22;;;;;;;5.20;1.20;;;15.90;95.60;;;;;;5030229;28;20109;-73
2021/10/12 09:41:56;;;;;;;6.30;1.20;;;16.80;95.10;;;;;;5030284;28;20091;-72
2021/10/12 09:44:22;;;;;;;6.03;1.45;;;16.60;93.80;;;;;;5030199;28;20025;-73
2021/10/12 09:46:49;;;;;;;7.30;1.60;;;16.60;94.40;;;;;;5032225;28;20109;-71
2021/10/12 09:49:19;;;;;;;11.55;2.42;;;17.50;93.80;;;;;;5033550;28;20451;-72
2021/10/12 09:52:02;;;;;;;6.82;1.58;;;17.70;93.50;;;;;;5033352;28;20091;-71
2021/10/12 09:54:33;;;;;;;3.17;1.77;;;17.80;92.90;;;;;;5033469;28;20522;-73
2021/10/12 09:57:04;;;;;;;5.50;1.58;;;18.90;92.40;;;;;;5032342;28;20108;-73
2021/10/12 09:59:31;;;;;;;3.83;1.27;;;19.50;90.90;;;;;;5046807;28;20025;-72
2021/10/12 10:01:58;;;;;;;2.78;1.15;;;18.70;90.30;;;;;;5052850;28;20043;-72
2021/10/12 10:04:25;;;;;;;4.75;1.35;;;20.00;90.00;;;;;;5053236;28;20029;-71
2021/10/12 10:06:53;;;;;;;5.70;0.63;;;20.80;86.80;;;;;;5053373;28;20120;-72
2021/10/12 10:09:23;;;;;;;5.55;1.33;;;21.00;84.00;;;;;;5051895;28;20430;-72
2021/10/12 10:11:50;;;;;;;5.38;1.15;;;21.10;84.50;;;;;;5053096;28;20043;-72
2021/10/12 10:14:18;;;;;;;9.27;1.50;;;21.20;84.90;;;;;;5053016;28;20335;-72
2021/10/12 10:16:50;;;;;;;8.07;1.30;;;21.00;83.10;;;;;;5053271;28;20033;-72
2021/10/12 10:19:26;;;;;;;5.10;1.20;;;20.40;83.90;;;;;;5052927;28;20438;-72
2021/10/12 10:21:51;;;;;;;6.75;1.10;;;19.60;83.50;;;;;;5053208;28;20025;-72
2021/10/12 10:24:37;;;;;;;4.05;1.13;;;18.20;83.70;;;;;;5053042;28;20115;-72
2021/10/12 10:27:03;;;;;;;4.00;1.00;;;19.10;87.20;;;;;;5052639;28;20025;-72
2021/10/12 10:29:37;;;;;;;7.45;1.10;;;20.60;86.20;;;;;;5052953;28;20021;-72
2021/10/12 10:32:23;;;;;;;10.00;1.38;;;21.80;84.00;;;;;;5052895;28;20039;-72
2021/10/12 10:35:02;;;;;;;5.40;1.40;;;23.00;79.30;;;;;;5052865;28;20112;-72
2021/10/12 10:37:33;;;;;;;3.63;1.20;;;23.90;75.90;;;;;;5052818;28;20037;-73
2021/10/12 10:40:03;;;;;;;6.53;1.05;;;24.40;75.80;;;;;;5052467;28;20040;-71
2021/10/12 10:42:41;;;;;;;7.20;2.10;;;23.60;68.20;;;;;;5052417;28;20060;-71
2021/10/12 10:45:08;;;;;;;6.53;1.50;;;24.70;71.20;;;;;;5052480;28;20362;-71
2021/10/12 10:47:45;;;;;;;7.40;1.23;;;25.30;70.30;;;;;;5052612;28;20025;-72
2021/10/12 10:50:30;;;;;;;6.75;1.30;;;25.60;65.90;;;;;;5052406;28;20017;-73
2021/10/12 10:52:58;;;;;;;4.93;1.65;;;24.70;63.70;;;;;;5053031;28;20029;-71
2021/10/12 10:55:27;;;;;;;4.40;1.35;;;23.80;66.00;;;;;;5052645;28;20041;-69
2021/10/12 10:58:01;;;;;;;10.93;1.88;;;22.80;67.60;;;;;;5052001;28;20043;-70
2021/10/12 11:00:28;;;;;;;10.48;4.80;;;22.20;67.70;;;;;;5052176;28;20127;-71
2021/10/12 11:02:55;;;;;;;7.80;1.55;;;21.50;69.90;;;;;;5052001;28;20436;-70
2021/10/12 11:05:37;;;;;;;4.63;1.67;;;20.80;70.30;;;;;;5052382;28;20037;-71
2021/10/12 11:08:16;;;;;;;8.68;1.25;;;20.30;72.80;;;;;;5052373;28;20099;-70
2021/10/12 11:10:44;;;;;;;5.93;1.17;;;19.90;72.10;;;;;;5051060;28;20075;-70
2021/10/12 11:13:10;;;;;;;5.97;1.25;;;19.60;72.70;;;;;;5052058;28;20415;-71
2021/10/12 11:15:51;;;;;;;7.15;1.30;;;19.10;74.50;;;;;;5051956;28;20056;-70
2021/10/12 11:18:17;;;;;;;5.07;1.15;;;18.90;74.60;;;;;;5051852;28;20361;-70
2021/10/12 11:20:45;;;;;;;9.93;3.15;;;18.80;74.70;;;;;;5051909;28;20052;-70
2021/10/12 11:23:13;;;;;;;7.35;2.20;;;18.70;76.50;;;;;;5050694;28;20021;-71
2021/10/12 11:25:40;;;;;;;6.55;1.25;;;18.80;75.20;;;;;;5052219;28;20021;-69
2021/10/12 11:28:10;;;;;;;5.43;1.17;;;18.80;75.00;;;;;;5051994;28;20037;-70
2021/10/12 11:30:37;;;;;;;6.85;1.35;;;18.70;74.60;;;;;;5051783;28;20025;-69
2021/10/12 11:33:02;;;;;;;5.80;1.55;;;18.80;74.30;;;;;;5051945;28;20143;-70
2021/10/12 11:35:40;;;;;;;10.82;1.80;;;19.00;73.90;;;;;;5051740;28;20029;-71
2021/10/12 11:38:07;;;;;;;;;;;19.10;73.50;;;;;;5052099;28;20079;-70
2021/10/12 11:40:35;;;;;;;5.60;0.80;;;18.90;73.20;;;;;;5052346;28;19915;-69
2021/10/12 11:43:03;;;;;;;6.68;1.05;;;18.60;73.90;;;;;;5051665;28;20071;-69
2021/10/12 11:45:30;;;;;;;7.50;1.45;;;18.50;73.60;;;;;;5051347;28;20086;-69
2021/10/12 11:47:56;;;;;;;1.67;0.60;;;18.20;74.30;;;;;;5050241;28;20025;-70
2021/10/12 11:50:22;;;;;;;2.35;0.95;;;18.10;72.80;;;;;;5051189;28;20044;-70
2021/10/12 11:52:51;;;;;;;4.88;1.45;;;18.10;71.60;;;;;;5051644;28;20025;-70
2021/10/12 11:55:21;;;;;;;5.05;1.02;;;18.10;71.70;;;;;;5051077;28;20029;-70
2021/10/12 11:57:47;;;;;;;6.85;1.33;;;17.80;72.10;;;;;;5051082;28;20090;-71
2021/10/12 12:00:14;;;;;;;4.72;0.95;;;17.70;72.50;;;;;;5051112;28;20037;-70
2021/10/12 12:02:43;;;;;;;2.80;1.50;;;17.90;73.30;;;;;;5051196;28;20368;-71
2021/10/12 12:05:10;;;;;;;3.63;0.73;;;17.80;72.20;;;;;;5051295;28;20013;-71
2021/10/12 12:07:42;;;;;;;4.35;0.65;;;17.60;73.20;;;;;;5051695;28;20407;-70
2021/10/12 12:10:09;;;;;;;12.35;2.45;;;17.60;70.60;;;;;;5050100;28;20049;-70
2021/10/12 12:12:35;;;;;;;2.53;0.75;;;17.40;72.60;;;;;;5050786;28;20037;-70
2021/10/12 12:15:04;;;;;;;3.03;1.27;;;17.40;72.70;;;;;;5051049;28;20028;-69
2021/10/12 12:17:31;;;;;;;5.68;1.48;;;17.30;71.80;;;;;;5051007;28;20378;-69
2021/10/12 12:20:11;;;;;;;2.83;0.53;;;17.40;72.00;;;;;;5050287;28;20060;-69
2021/10/12 12:22:45;;;;;;;3.92;1.00;;;17.50;72.10;;;;;;5051040;28;20044;-69
2021/10/12 12:25:17;;;;;;;1.77;0.50;;;17.40;71.50;;;;;;5050936;28;20032;-70
2021/10/12 12:27:58;;;;;;;1.80;0.50;;;17.40;70.90;;;;;;5050755;28;20029;-70
2021/10/12 12:30:33;;;;;;;0.93;0.40;;;17.30;70.40;;;;;;5050643;28;20029;-70
2021/10/12 12:33:00;;;;;;;2.50;0.82;;;17.20;71.30;;;;;;5050894;28;20029;-69
2021/10/12 12:35:26;;;;;;;4.25;0.82;;;17.10;72.20;;;;;;5050802;28;20052;-70
2021/10/12 12:37:56;;;;;;;1.27;0.95;;;16.90;71.40;;;;;;5051275;28;20462;-70
2021/10/12 12:40:27;;;;;;;2.83;0.65;;;17.10;72.30;;;;;;5050735;28;20037;-70
2021/10/12 12:42:53;;;;;;;4.80;0.70;;;17.10;71.00;;;;;;5050697;28;20121;-70
2021/10/12 12:45:24;;;;;;;3.92;0.80;;;16.90;71.50;;;;;;5050651;28;20091;-70
2021/10/12 12:47:54;;;;;;;3.25;0.73;;;17.20;72.50;;;;;;5050761;28;20044;-70